createdAt,value
2018-03-17T00:00:17.689Z,99161.78
2018-03-17T00:03:19.636Z,99160.13
2018-03-17T00:06:20.859Z,99151.44
2018-03-17T00:09:22.063Z,99158.91
2018-03-17T00:12:23.299Z,99156.05
2018-03-17T00:15:24.532Z,99165.68
2018-03-17T00:18:25.755Z,99151.44
2018-03-17T00:21:26.959Z,99160.52
2018-03-17T00:24:28.179Z,99164.27
2018-03-17T00:27:29.387Z,99176.94
2018-03-17T00:30:30.616Z,99158.66
2018-03-17T00:33:32.567Z,99159.95
2018-03-17T00:36:34.547Z,99161.70
2018-03-17T00:39:35.775Z,99154.77
2018-03-17T00:42:37.020Z,99165.09
2018-03-17T00:45:38.283Z,99174.41
2018-03-17T00:48:39.551Z,99159.24
2018-03-17T00:51:40.779Z,99166.59
2018-03-17T00:54:41.999Z,99153.09
2018-03-17T00:57:43.306Z,99166.89
2018-03-17T01:00:44.564Z,99174.63
2018-03-17T01:03:45.798Z,99175.16
2018-03-17T01:06:47.043Z,99163.26
2018-03-17T01:09:48.294Z,99154.81
2018-03-17T01:12:49.541Z,99158.55
2018-03-17T01:15:51.499Z,99164.20
2018-03-17T01:18:52.717Z,99165.05
2018-03-17T01:21:53.932Z,99163.33
2018-03-17T01:24:55.136Z,99168.42
2018-03-17T01:27:56.391Z,99176.34
2018-03-17T01:30:57.599Z,99165.48
2018-03-17T01:33:58.815Z,99166.64
2018-03-17T01:37:00.040Z,99164.27
2018-03-17T01:40:01.263Z,99172.07
2018-03-17T01:43:02.502Z,99165.48
2018-03-17T01:46:03.753Z,99165.84
2018-03-17T01:49:04.992Z,99165.38
2018-03-17T01:52:06.252Z,99168.59
2018-03-17T01:55:07.494Z,99170.13
2018-03-17T01:58:08.716Z,99169.75
2018-03-17T02:01:09.994Z,99152.45
2018-03-17T02:04:11.257Z,99156.19
2018-03-17T02:07:12.499Z,99159.68
2018-03-17T02:10:13.734Z,99155.21
2018-03-17T02:13:14.999Z,99157.10
2018-03-17T02:16:17.031Z,99136.24
2018-03-17T02:19:18.342Z,99139.57
2018-03-17T02:22:19.595Z,99140.63
2018-03-17T02:25:20.835Z,99123.36
2018-03-17T02:28:22.085Z,99118.19
2018-03-17T02:31:23.328Z,99121.00
2018-03-17T02:34:24.588Z,99127.81
2018-03-17T02:37:25.842Z,99119.70
2018-03-17T02:40:27.075Z,99126.77
2018-03-17T02:43:28.311Z,99118.86
2018-03-17T02:46:29.543Z,99129.55
2018-03-17T02:49:30.801Z,99113.39
2018-03-17T02:52:32.048Z,99118.03
2018-03-17T02:55:34.020Z,99109.53
2018-03-17T02:58:35.994Z,99109.53
2018-03-17T03:01:37.219Z,99123.97
2018-03-17T03:04:38.517Z,99126.93
2018-03-17T03:07:39.764Z,99133.34
2018-03-17T03:10:40.977Z,99126.70
2018-03-17T03:13:42.205Z,99127.21
2018-03-17T03:16:43.431Z,99131.49
2018-03-17T03:19:44.658Z,99123.89
2018-03-17T03:22:45.922Z,99125.03
2018-03-17T03:25:47.189Z,99143.05
2018-03-17T03:28:48.475Z,99143.28
2018-03-17T03:31:49.722Z,99132.55
2018-03-17T03:34:50.954Z,99136.88
2018-03-17T03:37:52.914Z,99142.67
2018-03-17T03:40:54.150Z,99137.08
2018-03-17T03:43:55.382Z,99155.80
2018-03-17T03:46:56.614Z,99137.10
2018-03-17T03:49:57.828Z,99136.09
2018-03-17T03:52:59.062Z,99123.80
2018-03-17T03:56:00.280Z,99127.09
2018-03-17T03:59:01.506Z,99142.25
2018-03-17T04:02:02.792Z,99131.80
2018-03-17T04:05:04.099Z,99140.36
2018-03-17T04:08:06.083Z,99134.77
2018-03-17T04:11:08.061Z,99135.66
2018-03-17T04:14:10.057Z,99131.77
2018-03-17T04:17:11.369Z,99135.78
2018-03-17T04:20:12.612Z,99128.09
2018-03-17T04:23:13.888Z,99136.73
2018-03-17T04:26:15.113Z,99121.59
2018-03-17T04:29:16.405Z,99131.54
2018-03-17T04:32:18.334Z,99135.36
2018-03-17T04:35:20.321Z,99128.48
2018-03-17T04:38:22.290Z,99124.53
2018-03-17T04:41:23.529Z,99126.68
2018-03-17T04:44:24.762Z,99110.27
2018-03-17T04:47:25.987Z,99118.48
2018-03-17T04:50:30.109Z,99125.32
2018-03-17T04:53:32.359Z,99132.87
2018-03-17T04:56:34.680Z,99127.61
2018-03-17T04:59:36.891Z,99121.15
2018-03-17T05:02:40.085Z,99104.25
2018-03-17T05:05:42.323Z,99102.49
2018-03-17T05:08:43.604Z,99114.63
2018-03-17T05:11:45.261Z,99118.86
2018-03-17T05:14:46.518Z,99121.05
2018-03-17T05:17:47.759Z,99123.72
2018-03-17T05:20:49.005Z,99125.30
2018-03-17T05:23:51.054Z,99130.58
2018-03-17T05:26:52.290Z,99133.53
2018-03-17T05:29:53.542Z,99128.93
2018-03-17T05:32:54.788Z,99124.22
2018-03-17T05:35:56.037Z,99134.98
2018-03-17T05:39:05.064Z,99119.84
2018-03-17T05:42:06.294Z,99121.14
2018-03-17T05:45:07.571Z,99121.95
2018-03-17T05:48:08.914Z,99113.27
2018-03-17T05:51:10.120Z,99111.19
2018-03-17T05:54:11.346Z,99118.97
2018-03-17T05:57:12.603Z,99114.60
2018-03-17T06:00:13.898Z,99116.40
2018-03-17T06:03:15.127Z,99130.73
2018-03-17T06:06:16.367Z,99137.69
2018-03-17T06:09:17.621Z,99121.19
2018-03-17T06:12:18.875Z,99125.54
2018-03-17T06:15:20.123Z,99120.28
2018-03-17T06:18:22.103Z,99108.16
2018-03-17T06:21:23.375Z,99121.19
2018-03-17T06:24:25.355Z,99127.69
2018-03-17T06:27:27.345Z,99127.27
2018-03-17T06:30:29.321Z,99131.16
2018-03-17T06:33:31.317Z,99129.88
2018-03-17T06:36:32.529Z,99133.77
2018-03-17T06:39:33.790Z,99124.23
2018-03-17T06:42:35.083Z,99122.92
2018-03-17T06:45:37.035Z,99117.30
2018-03-17T06:48:38.270Z,99126.40
2018-03-17T06:51:39.527Z,99138.09
2018-03-17T06:54:40.766Z,99135.94
2018-03-17T06:57:42.787Z,99125.08
2018-03-17T07:00:44.040Z,99129.00
2018-03-17T07:03:45.302Z,99125.52
2018-03-17T07:06:46.522Z,99131.17
2018-03-17T07:09:48.502Z,99125.98
2018-03-17T07:12:50.479Z,99132.04
2018-03-17T07:15:52.472Z,99147.23
2018-03-17T07:18:54.460Z,99139.85
2018-03-17T07:21:55.717Z,99145.48
2018-03-17T07:24:57.702Z,99135.48
2018-03-17T07:27:58.942Z,99145.08
2018-03-17T07:31:00.171Z,99145.94
2018-03-17T07:34:01.426Z,99141.58
2018-03-17T07:37:02.672Z,99149.84
2018-03-17T07:40:03.911Z,99157.23
2018-03-17T07:43:05.890Z,99151.14
2018-03-17T07:46:07.890Z,99151.98
2018-03-17T07:49:09.150Z,99166.33
2018-03-17T07:52:10.364Z,99163.16
2018-03-17T07:55:11.653Z,99158.88
2018-03-17T07:58:13.655Z,99151.58
2018-03-17T08:01:14.926Z,99142.89
2018-03-17T08:04:16.173Z,99149.42
2018-03-17T08:07:17.398Z,99138.55
2018-03-17T08:10:18.626Z,99139.82
2018-03-17T08:13:19.929Z,99153.32
2018-03-17T08:16:21.182Z,99149.84
2018-03-17T08:19:22.434Z,99156.34
2018-03-17T08:22:23.733Z,99152.85
2018-03-17T08:25:24.954Z,99139.84
2018-03-17T08:28:26.186Z,99143.75
2018-03-17T08:31:27.424Z,99139.41
2018-03-17T08:34:29.383Z,99137.65
2018-03-17T08:37:30.606Z,99131.19
2018-03-17T08:40:31.846Z,99134.66
2018-03-17T08:43:33.056Z,99143.31
2018-03-17T08:46:34.330Z,99136.39
2018-03-17T08:49:35.581Z,99152.44
2018-03-17T08:52:36.830Z,99157.17
2018-03-17T08:55:38.055Z,99141.58
2018-03-17T08:58:39.377Z,99150.70
2018-03-17T09:01:41.009Z,99159.23
2018-03-17T09:04:43.185Z,99142.41
2018-03-17T09:07:44.440Z,99153.69
2018-03-17T09:10:45.710Z,99158.02
2018-03-17T09:13:46.903Z,99156.31
2018-03-17T09:16:48.135Z,99150.59
2018-03-17T09:19:49.377Z,99143.77
2018-03-17T09:22:51.344Z,99158.93
2018-03-17T09:25:52.578Z,99152.89
2018-03-17T09:28:53.842Z,99148.95
2018-03-17T09:31:55.082Z,99149.83
2018-03-17T09:34:56.306Z,99140.72
2018-03-17T09:38:05.368Z,99156.76
2018-03-17T09:41:07.359Z,99161.98
2018-03-17T09:44:08.603Z,99136.81
2018-03-17T09:47:10.600Z,99134.20
2018-03-17T09:50:11.834Z,99140.72
2018-03-17T09:53:13.096Z,99143.31
2018-03-17T09:56:14.319Z,99135.95
2018-03-17T09:59:15.554Z,99129.00
2018-03-17T10:02:16.834Z,99139.41
2018-03-17T10:05:18.105Z,99151.06
2018-03-17T10:08:19.324Z,99139.41
2018-03-17T10:11:21.306Z,99144.62
2018-03-17T10:14:23.282Z,99137.23
2018-03-17T10:17:25.266Z,99152.87
2018-03-17T10:20:27.244Z,99137.23
2018-03-17T10:23:29.254Z,99139.41
2018-03-17T10:26:30.525Z,99148.52
2018-03-17T10:29:31.816Z,99147.67
2018-03-17T10:32:33.031Z,99132.43
2018-03-17T10:35:34.244Z,99133.78
2018-03-17T10:38:35.502Z,99134.22
2018-03-17T10:41:36.738Z,99135.06
2018-03-17T10:44:37.992Z,99123.79
2018-03-17T10:47:39.265Z,99143.73
2018-03-17T10:50:40.503Z,99141.15
2018-03-17T10:53:41.751Z,99141.97
2018-03-17T10:56:43.746Z,99125.98
2018-03-17T10:59:45.002Z,99120.75
2018-03-17T11:02:51.945Z,99122.50
2018-03-17T11:05:53.235Z,99124.17
2018-03-17T11:08:54.483Z,99136.80
2018-03-17T11:11:55.765Z,99121.60
2018-03-17T11:14:57.030Z,99133.33
2018-03-17T11:17:58.217Z,99125.55
2018-03-17T11:20:59.445Z,99128.98
2018-03-17T11:24:00.672Z,99125.98
2018-03-17T11:27:01.937Z,99130.75
2018-03-17T11:30:03.171Z,99140.73
2018-03-17T11:33:04.449Z,99160.70
2018-03-17T11:36:05.705Z,99138.54
2018-03-17T11:39:07.157Z,99155.02
2018-03-17T11:42:08.419Z,99148.55
2018-03-17T11:45:10.388Z,99130.30
2018-03-17T11:48:12.378Z,99125.08
2018-03-17T11:51:14.347Z,99137.64
2018-03-17T11:54:16.322Z,99125.52
2018-03-17T11:57:17.621Z,99130.23
2018-03-17T12:00:18.874Z,99131.16
2018-03-17T12:03:20.137Z,99139.00
2018-03-17T12:06:21.390Z,99148.09
2018-03-17T12:09:23.355Z,99138.12
2018-03-17T12:12:24.617Z,99122.07
2018-03-17T12:15:25.894Z,99132.03
2018-03-17T12:18:27.897Z,99134.18
2018-03-17T12:21:29.131Z,99125.54
2018-03-17T12:24:31.108Z,99114.69
2018-03-17T12:27:33.117Z,99117.72
2018-03-17T12:30:34.350Z,99119.84
2018-03-17T12:33:35.600Z,99114.25
2018-03-17T12:36:36.838Z,99119.02
2018-03-17T12:39:38.083Z,99120.75
2018-03-17T12:42:39.318Z,99109.02
2018-03-17T12:45:41.286Z,99104.67
2018-03-17T12:48:43.256Z,99119.44
2018-03-17T12:51:44.512Z,99122.45
2018-03-17T12:54:45.789Z,99118.58
2018-03-17T12:57:47.808Z,99114.67
2018-03-17T13:00:49.035Z,99119.45
2018-03-17T13:03:51.025Z,99113.38
2018-03-17T13:06:53.023Z,99119.88
2018-03-17T13:09:54.281Z,99092.50
2018-03-17T13:13:02.564Z,99105.12
2018-03-17T13:16:03.807Z,99112.94
2018-03-17T13:19:23.692Z,99102.06
2018-03-17T13:22:24.935Z,99089.05
2018-03-17T13:25:26.172Z,99112.06
2018-03-17T13:28:28.159Z,99100.34
2018-03-17T13:31:30.122Z,99096.83
2018-03-17T13:34:31.374Z,99095.99
2018-03-17T13:37:37.494Z,99102.06
2018-03-17T13:40:42.297Z,99110.28
2018-03-17T13:43:43.541Z,99092.94
2018-03-17T13:46:44.775Z,99115.53
2018-03-17T13:49:46.014Z,99109.42
2018-03-17T13:52:48.021Z,99101.22
2018-03-17T13:55:49.255Z,99083.00
2018-03-17T13:58:51.552Z,99091.67
2018-03-17T14:01:53.542Z,99088.63
2018-03-17T14:04:54.780Z,99093.84
2018-03-17T14:07:56.004Z,99089.52
2018-03-17T14:10:57.226Z,99090.81
2018-03-17T14:13:58.463Z,99084.73
2018-03-17T14:16:59.676Z,99094.28
2018-03-17T14:20:00.913Z,99093.41
2018-03-17T14:23:02.190Z,99096.88
2018-03-17T14:26:03.443Z,99097.73
2018-03-17T14:29:04.688Z,99096.88
2018-03-17T14:32:06.681Z,99089.08
2018-03-17T14:35:08.702Z,99097.73
2018-03-17T14:38:09.962Z,99099.88
2018-03-17T14:41:11.199Z,99104.64
2018-03-17T14:44:12.423Z,99089.42
2018-03-17T14:47:13.662Z,99109.44
2018-03-17T14:50:14.895Z,99098.16
2018-03-17T14:53:16.138Z,99107.30
2018-03-17T14:56:18.122Z,99105.12
2018-03-17T14:59:19.377Z,99108.58
2018-03-17T15:02:21.367Z,99102.10
2018-03-17T15:05:22.591Z,99105.94
2018-03-17T15:08:23.830Z,99107.72
2018-03-17T15:11:25.063Z,99092.10
2018-03-17T15:14:26.390Z,99102.93
2018-03-17T15:17:27.645Z,99094.27
2018-03-17T15:20:28.906Z,99086.89
2018-03-17T15:23:30.128Z,99107.71
2018-03-17T15:26:38.320Z,99097.73
2018-03-17T15:29:40.286Z,99092.95
2018-03-17T15:32:41.518Z,99096.02
2018-03-17T15:35:42.731Z,99103.38
2018-03-17T15:38:44.704Z,99112.06
2018-03-17T15:41:46.654Z,99122.92
2018-03-17T15:44:47.915Z,99120.75
2018-03-17T15:47:49.131Z,99122.48
2018-03-17T15:50:50.619Z,99118.17
2018-03-17T15:53:51.873Z,99121.62
2018-03-17T15:56:53.106Z,99109.45
2018-03-17T15:59:55.133Z,99109.45
2018-03-17T16:02:56.425Z,99118.59
2018-03-17T16:05:57.662Z,99127.72
2018-03-17T16:08:58.916Z,99113.80
2018-03-17T16:12:00.162Z,99118.14
2018-03-17T16:15:01.418Z,99117.28
2018-03-17T16:18:02.682Z,99114.23
2018-03-17T16:21:03.895Z,99113.38
2018-03-17T16:24:05.461Z,99102.95
2018-03-17T16:27:07.057Z,99109.42
2018-03-17T16:30:08.837Z,99115.08
2018-03-17T16:33:10.577Z,99106.44
2018-03-17T16:36:12.219Z,99105.95
2018-03-17T16:39:14.121Z,99109.45
2018-03-17T16:42:15.682Z,99119.01
2018-03-17T16:45:17.065Z,99125.89
2018-03-17T16:48:18.571Z,99126.38
2018-03-17T16:51:21.041Z,99124.22
2018-03-17T16:54:23.504Z,99130.70
2018-03-17T16:57:25.253Z,99129.39
2018-03-17T17:00:27.033Z,99137.24
2018-03-17T17:03:28.382Z,99137.68
2018-03-17T17:06:30.338Z,99140.28
2018-03-17T17:09:31.830Z,99124.65
2018-03-17T17:12:33.375Z,99152.44
2018-03-17T17:15:34.606Z,99150.27
2018-03-17T17:18:35.842Z,99144.64
2018-03-17T17:21:37.163Z,99142.88
2018-03-17T17:24:38.936Z,99150.23
2018-03-17T17:27:40.200Z,99145.89
2018-03-17T17:30:41.563Z,99145.91
2018-03-17T17:33:42.929Z,99150.64
2018-03-17T17:36:45.346Z,99160.27
2018-03-17T17:39:47.745Z,99150.68
2018-03-17T17:42:49.048Z,99172.38
2018-03-17T17:45:50.812Z,99160.22
2018-03-17T17:48:52.073Z,99173.67
2018-03-17T17:51:53.875Z,99177.95
2018-03-17T17:54:56.441Z,99159.09
2018-03-17T17:57:59.093Z,99179.66
2018-03-17T18:01:01.062Z,99180.05
2018-03-17T18:04:03.158Z,99180.95
2018-03-17T18:07:04.788Z,99176.63
2018-03-17T18:10:06.075Z,99179.73
2018-03-17T18:13:07.419Z,99173.27
2018-03-17T18:16:10.183Z,99192.81
2018-03-17T18:19:11.639Z,99197.16
2018-03-17T18:22:13.716Z,99199.33
2018-03-17T18:25:15.931Z,99194.08
2018-03-17T18:28:17.729Z,99189.33
2018-03-17T18:31:19.101Z,99192.37
2018-03-17T18:34:21.538Z,99194.88
2018-03-17T18:37:24.108Z,99195.41
2018-03-17T18:40:26.829Z,99194.52
2018-03-17T18:43:28.369Z,99186.64
2018-03-17T18:46:30.661Z,99183.17
2018-03-17T18:49:32.038Z,99188.00
2018-03-17T18:52:33.863Z,99196.69
2018-03-17T18:55:35.645Z,99186.22
2018-03-17T18:58:37.344Z,99184.03
2018-03-17T19:01:38.745Z,99187.14
2018-03-17T19:04:40.797Z,99189.27
2018-03-17T19:07:43.088Z,99190.20
2018-03-17T19:10:44.550Z,99190.60
2018-03-17T19:13:46.686Z,99195.83
2018-03-17T19:16:48.404Z,99195.39
2018-03-17T19:19:49.671Z,99198.86
2018-03-17T19:22:51.391Z,99197.78
2018-03-17T19:25:53.441Z,99201.86
2018-03-17T19:28:54.809Z,99201.45
2018-03-17T19:31:57.345Z,99203.07
2018-03-17T19:34:58.743Z,99207.84
2018-03-17T19:38:01.181Z,99196.59
2018-03-17T19:41:02.792Z,99195.35
2018-03-17T19:44:04.574Z,99188.79
2018-03-17T19:47:06.270Z,99202.30
2018-03-17T19:50:08.396Z,99204.05
2018-03-17T19:53:09.860Z,99204.55
2018-03-17T19:56:11.597Z,99212.76
2018-03-17T19:59:13.169Z,99196.24
2018-03-17T20:02:14.431Z,99214.08
2018-03-17T20:05:15.915Z,99216.26
2018-03-17T20:08:17.967Z,99209.75
2018-03-17T20:11:20.122Z,99216.70
2018-03-17T20:14:21.858Z,99216.23
2018-03-17T20:17:24.348Z,99222.69
2018-03-17T20:20:25.584Z,99219.69
2018-03-17T20:23:27.381Z,99226.55
2018-03-17T20:26:28.675Z,99227.05
2018-03-17T20:29:30.413Z,99231.27
2018-03-17T20:32:32.737Z,99230.55
2018-03-17T20:35:34.354Z,99235.28
2018-03-17T20:38:35.684Z,99233.58
2018-03-17T20:41:37.410Z,99227.50
2018-03-17T20:44:38.953Z,99226.65
2018-03-17T20:47:40.678Z,99236.08
2018-03-17T20:50:41.942Z,99233.59
2018-03-17T20:53:43.193Z,99237.11
2018-03-17T20:56:45.169Z,99246.20
2018-03-17T20:59:47.280Z,99230.55
2018-03-17T21:02:48.737Z,99246.63
2018-03-17T21:05:50.187Z,99238.35
2018-03-17T21:08:51.848Z,99234.45
2018-03-17T21:11:53.609Z,99243.08
2018-03-17T21:14:56.116Z,99240.55
2018-03-17T21:17:58.382Z,99251.84
2018-03-17T21:21:00.004Z,99238.39
2018-03-17T21:24:01.383Z,99231.75
2018-03-17T21:27:02.727Z,99228.83
2018-03-17T21:30:04.065Z,99247.01
2018-03-17T21:33:06.401Z,99243.54
2018-03-17T21:36:08.062Z,99236.17
2018-03-17T21:39:09.872Z,99241.80
2018-03-17T21:42:11.137Z,99231.02
2018-03-17T21:45:12.890Z,99233.50
2018-03-17T21:48:14.148Z,99230.13
2018-03-17T21:51:16.887Z,99237.93
2018-03-17T21:54:19.133Z,99235.77
2018-03-17T21:57:20.632Z,99237.50
2018-03-17T22:00:22.114Z,99226.63
2018-03-17T22:03:24.709Z,99237.55
2018-03-17T22:06:27.290Z,99247.05
2018-03-17T22:09:28.775Z,99223.52
2018-03-17T22:12:30.061Z,99234.32
2018-03-17T22:15:31.773Z,99230.94
2018-03-17T22:18:33.577Z,99235.25
2018-03-17T22:21:34.826Z,99210.98
2018-03-17T22:24:36.125Z,99227.94
2018-03-17T22:27:37.415Z,99230.55
2018-03-17T22:30:39.375Z,99234.86
2018-03-17T22:33:40.679Z,99239.20
2018-03-17T22:36:41.936Z,99234.88
2018-03-17T22:39:43.233Z,99237.85
2018-03-17T22:42:44.557Z,99242.59
2018-03-17T22:45:45.831Z,99237.06
2018-03-17T22:48:47.092Z,99242.98
2018-03-17T22:51:48.408Z,99234.44
2018-03-17T22:54:49.654Z,99244.41
2018-03-17T22:57:50.916Z,99241.70
2018-03-17T23:00:52.178Z,99242.64
2018-03-17T23:03:53.476Z,99245.19
2018-03-17T23:06:54.738Z,99247.42
2018-03-17T23:09:56.051Z,99240.98
2018-03-17T23:12:57.358Z,99245.61
2018-03-17T23:15:58.634Z,99251.35
2018-03-17T23:18:59.911Z,99252.13
2018-03-17T23:22:01.220Z,99242.26
2018-03-17T23:25:02.536Z,99244.33
2018-03-17T23:28:04.532Z,99236.55
2018-03-17T23:31:05.905Z,99240.92
2018-03-17T23:34:07.163Z,99247.88
2018-03-17T23:37:08.506Z,99232.61
2018-03-17T23:40:10.523Z,99236.48
2018-03-17T23:43:11.837Z,99242.67
2018-03-17T23:46:13.150Z,99236.19
2018-03-17T23:49:14.478Z,99243.55
2018-03-17T23:52:15.813Z,99240.98
2018-03-17T23:55:17.086Z,99241.80
2018-03-17T23:58:18.372Z,99255.69
